Time;durP1;ratioP1;P1;durP2;ratioP2;P2;SDS_P1;SDS_P2;PMS_P1;PMS_P2;Temp;Humidity;BMP_temperature;BMP_pressure;BME280_temperature;BME280_humidity;BME280_pressure;Samples;Min_cycle;Max_cycle;Signal;HPM_P1;HPM_P2
2023/09/04 00:01:38;;;;;;;5.70;2.70;;;;;;;15.85;75.11;101841.05;111171;1209;97673;-66
2023/09/04 00:04:04;;;;;;;17.40;3.30;;;;;;;15.85;75.11;101848.40;111101;1213;106916;-66
2023/09/04 00:06:30;;;;;;;6.80;3.20;;;;;;;15.84;75.24;101848.98;111084;1214;97645;-65
2023/09/04 00:08:57;;;;;;;12.00;4.50;;;;;;;15.85;75.29;101851.14;111209;1209;96969;-66
2023/09/04 00:11:27;;;;;;;5.50;2.80;;;;;;;15.84;75.49;101848.81;111126;1209;99784;-66
2023/09/04 00:13:53;;;;;;;8.60;2.80;;;;;;;15.84;75.54;101847.74;111088;1212;108104;-65
2023/09/04 00:16:19;;;;;;;6.40;2.60;;;;;;;15.85;75.36;101849.67;111090;1214;97780;-65
2023/09/04 00:18:44;;;;;;;10.90;3.20;;;;;;;15.85;75.69;101848.23;111230;1212;97745;-66
2023/09/04 00:21:09;;;;;;;4.50;2.50;;;;;;;15.85;75.62;101844.65;111104;1214;99875;-66
2023/09/04 00:23:35;;;;;;;7.20;3.00;;;;;;;15.83;75.79;101842.95;111029;1209;97689;-66
2023/09/04 00:26:00;;;;;;;9.10;2.90;;;;;;;15.82;75.95;101845.86;111183;1209;97592;-65
2023/09/04 00:28:26;;;;;;;5.10;2.80;;;;;;;15.81;75.90;101840.49;111059;1209;97745;-63
2023/09/04 00:30:51;;;;;;;10.80;3.00;;;;;;;15.81;76.01;101835.98;111167;1209;97691;-65
2023/09/04 00:33:17;;;;;;;9.80;2.50;;;;;;;15.81;76.02;101836.15;111138;1222;97702;-65
2023/09/04 00:35:42;;;;;;;9.60;2.90;;;;;;;15.81;76.18;101839.78;111085;1208;97585;-66
2023/09/04 00:38:07;;;;;;;9.80;3.10;;;;;;;15.80;76.16;101846.84;111195;1213;97706;-65
2023/09/04 00:40:32;;;;;;;11.60;2.90;;;;;;;15.80;76.13;101847.23;111055;1209;99101;-65
2023/09/04 00:42:57;;;;;;;7.30;3.10;;;;;;;15.78;76.33;101853.82;111179;1210;97600;-65
2023/09/04 00:45:23;;;;;;;5.60;2.60;;;;;;;15.78;76.50;101853.27;111096;1212;97606;-65
2023/09/04 00:47:48;;;;;;;7.00;2.50;;;;;;;15.79;76.42;101850.34;111038;1213;96896;-65
2023/09/04 00:50:23;;;;;;;6.70;2.80;;;;;;;15.78;76.44;101848.73;111132;1212;97722;-65
2023/09/04 00:53:00;;;;;;;7.10;2.60;;;;;;;15.78;76.47;101852.71;111134;1209;97635;-66
2023/09/04 00:55:26;;;;;;;8.70;3.20;;;;;;;15.76;76.68;101843.99;111035;1209;110847;-65
2023/09/04 00:57:52;;;;;;;11.80;3.40;;;;;;;15.75;76.66;101839.50;111069;1213;97613;-65
2023/09/04 01:00:21;;;;;;;7.40;2.70;;;;;;;15.75;76.83;101835.38;111204;1209;97618;-65
2023/09/04 01:02:47;;;;;;;6.50;2.30;;;;;;;15.73;76.79;101831.16;111197;1209;97559;-65
2023/09/04 01:05:13;;;;;;;4.10;2.30;;;;;;;15.71;77.01;101828.35;111088;1210;97589;-65
2023/09/04 01:07:41;;;;;;;6.10;2.60;;;;;;;15.69;77.02;101827.89;111154;1210;97803;-65
2023/09/04 01:10:08;;;;;;;6.90;2.70;;;;;;;15.68;77.16;101824.36;111037;1213;97645;-67
2023/09/04 01:12:51;;;;;;;8.00;2.90;;;;;;;15.67;77.27;101818.80;111140;1209;97713;-65
2023/09/04 01:15:17;;;;;;;6.40;2.10;;;;;;;15.68;77.30;101817.52;111086;1209;111877;-65
2023/09/04 01:17:44;;;;;;;6.80;2.40;;;;;;;15.66;77.41;101819.95;111039;1209;97597;-64
2023/09/04 01:20:20;;;;;;;7.70;3.00;;;;;;;15.66;77.51;101814.72;111257;1209;98620;-65
2023/09/04 01:22:45;;;;;;;7.30;2.50;;;;;;;15.64;77.46;101806.89;111225;1213;97688;-64
2023/09/04 01:25:11;;;;;;;5.60;2.40;;;;;;;15.62;77.73;101805.71;111043;1212;97587;-64
2023/09/04 01:27:41;;;;;;;7.80;2.90;;;;;;;15.60;77.70;101810.34;111193;1209;97719;-64
2023/09/04 01:30:16;;;;;;;8.50;3.20;;;;;;;15.59;77.87;101821.39;111255;1209;97994;-64
2023/09/04 01:32:47;;;;;;;7.70;3.30;;;;;;;15.59;77.97;101825.34;111105;1210;97567;-64
2023/09/04 01:35:14;;;;;;;5.00;2.70;;;;;;;15.59;77.93;101830.20;111157;1210;111757;-64
2023/09/04 01:37:41;;;;;;;6.30;3.50;;;;;;;15.58;77.98;101827.36;111131;1209;99107;-64
2023/09/04 01:40:08;;;;;;;5.60;2.90;;;;;;;15.57;78.04;101821.65;111019;1209;97673;-65
2023/09/04 01:42:34;;;;;;;3.10;2.60;;;;;;;15.56;78.05;101830.68;111251;1212;97660;-64
2023/09/04 01:45:02;;;;;;;6.40;2.80;;;;;;;15.54;78.13;101837.59;111149;1209;97036;-65
2023/09/04 01:47:30;;;;;;;7.30;2.90;;;;;;;15.52;78.28;101830.86;111109;1212;97697;-65
2023/09/04 01:49:56;;;;;;;3.50;2.20;;;;;;;15.50;78.35;101839.04;111092;1210;97566;-65
2023/09/04 01:52:21;;;;;;;5.80;2.20;;;;;;;15.48;78.47;101843.45;111087;1209;97744;-64
2023/09/04 01:54:46;;;;;;;4.00;2.70;;;;;;;15.44;78.70;101843.80;111083;1212;97601;-65
2023/09/04 01:57:11;;;;;;;3.50;2.10;;;;;;;15.44;78.74;101846.17;111053;1209;97651;-65
2023/09/04 01:59:37;;;;;;;5.90;2.70;;;;;;;15.43;78.80;101845.29;111184;1212;97681;-65
2023/09/04 02:02:02;;;;;;;5.20;2.80;;;;;;;15.42;78.89;101839.39;111008;1209;97581;-65
2023/09/04 02:04:31;;;;;;;4.30;2.40;;;;;;;15.41;78.89;101838.38;111128;1212;97685;-65
2023/09/04 02:06:57;;;;;;;5.60;2.60;;;;;;;15.41;79.00;101842.70;111166;1212;100009;-64
2023/09/04 02:09:22;;;;;;;5.20;2.50;;;;;;;15.41;79.00;101849.73;111099;1212;99207;-65
2023/09/04 02:11:47;;;;;;;8.70;2.40;;;;;;;15.38;78.99;101857.40;111176;1212;97693;-65
2023/09/04 02:14:12;;;;;;;3.80;2.30;;;;;;;15.37;79.21;101860.35;111035;1212;98003;-64
2023/09/04 02:16:38;;;;;;;7.90;2.70;;;;;;;15.34;79.05;101860.48;111128;1209;97650;-64
2023/09/04 02:19:03;;;;;;;10.80;3.10;;;;;;;15.32;79.26;101856.44;111006;1212;97600;-65
2023/09/04 02:21:28;;;;;;;6.80;2.70;;;;;;;15.30;79.39;101860.83;111013;1210;97601;-64
2023/09/04 02:23:54;;;;;;;4.50;2.60;;;;;;;15.30;79.23;101866.04;111235;1210;97712;-65
2023/09/04 02:26:19;;;;;;;6.30;2.80;;;;;;;15.29;79.38;101869.51;111091;1212;97684;-64
2023/09/04 02:28:44;;;;;;;6.90;3.30;;;;;;;15.29;79.49;101868.44;111199;1209;97658;-64
2023/09/04 02:31:11;;;;;;;8.10;2.70;;;;;;;15.30;79.55;101882.63;111009;1209;97645;-65
2023/09/04 02:33:37;;;;;;;8.40;2.40;;;;;;;15.29;79.43;101885.91;111119;1212;97693;-64
2023/09/04 02:36:02;;;;;;;5.10;2.50;;;;;;;15.26;79.77;101889.09;111164;1212;97703;-65
2023/09/04 02:38:28;;;;;;;5.50;2.90;;;;;;;15.26;79.86;101894.28;110988;1212;97911;-64
2023/09/04 02:40:53;;;;;;;7.90;3.20;;;;;;;15.28;79.85;101895.67;111136;1209;97573;-65
2023/09/04 02:43:19;;;;;;;6.10;3.20;;;;;;;15.29;79.80;101889.34;111178;1212;99249;-65
2023/09/04 02:45:45;;;;;;;6.90;3.10;;;;;;;15.26;79.98;101884.21;111078;1209;96201;-65
2023/09/04 02:48:11;;;;;;;8.50;3.30;;;;;;;15.25;79.98;101884.10;111095;1212;97681;-65
2023/09/04 02:50:36;;;;;;;6.20;3.10;;;;;;;15.23;80.04;101878.94;111173;1210;97684;-64
2023/09/04 02:53:01;;;;;;;7.80;2.70;;;;;;;15.22;80.12;101875.57;111038;1208;97673;-65
2023/09/04 02:55:26;;;;;;;6.70;3.20;;;;;;;15.20;80.15;101876.91;111166;1212;97613;-65
2023/09/04 02:57:52;;;;;;;4.80;2.30;;;;;;;15.18;80.12;101874.29;111043;1208;97569;-65
2023/09/04 03:00:18;;;;;;;6.20;3.30;;;;;;;15.15;80.33;101871.36;111019;1210;97575;-64
2023/09/04 03:02:43;;;;;;;6.70;3.00;;;;;;;15.13;80.42;101871.98;111081;1212;99121;-64
2023/09/04 03:05:08;;;;;;;5.70;2.80;;;;;;;15.13;80.39;101866.23;111100;1212;97623;-64
2023/09/04 03:07:34;;;;;;;7.30;3.10;;;;;;;15.11;80.47;101865.98;111054;1209;97537;-65
2023/09/04 03:10:00;;;;;;;9.40;3.20;;;;;;;15.08;80.43;101861.05;111138;1212;97702;-65
2023/09/04 03:12:32;;;;;;;6.10;3.00;;;;;;;15.05;80.75;101858.49;111256;1209;97580;-65
2023/09/04 03:15:03;;;;;;;8.20;3.00;;;;;;;15.02;80.89;101864.75;111036;1212;97709;-64
2023/09/04 03:17:29;;;;;;;6.90;3.00;;;;;;;15.00;80.97;101865.01;111056;1210;111446;-64
2023/09/04 03:19:56;;;;;;;11.30;3.60;;;;;;;14.99;80.92;101862.00;111059;1209;97585;-64
2023/09/04 03:22:23;;;;;;;5.40;3.40;;;;;;;14.97;80.99;101864.42;110999;1211;97681;-64
2023/09/04 03:24:48;;;;;;;5.20;2.80;;;;;;;14.95;81.06;101868.10;111124;1209;97566;-65
2023/09/04 03:27:14;;;;;;;5.60;3.10;;;;;;;14.94;81.25;101866.68;111143;1212;97682;-65
2023/09/04 03:29:39;;;;;;;7.50;3.10;;;;;;;14.91;81.29;101864.83;111055;1209;97686;-66
2023/09/04 03:32:06;;;;;;;6.50;3.30;;;;;;;14.89;81.38;101860.23;111162;1209;97714;-65
2023/09/04 03:34:31;;;;;;;7.70;3.30;;;;;;;14.88;81.53;101864.08;111029;1209;97795;-65
2023/09/04 03:36:57;;;;;;;7.10;3.00;;;;;;;14.86;81.54;101871.91;111079;1210;97688;-65
2023/09/04 03:39:23;;;;;;;12.30;3.70;;;;;;;14.84;81.66;101878.25;111096;1212;97794;-65
2023/09/04 03:41:48;;;;;;;6.70;3.40;;;;;;;14.83;81.64;101881.37;111037;1209;97587;-65
2023/09/04 03:44:14;;;;;;;6.90;2.80;;;;;;;14.80;81.90;101881.33;111096;1215;97671;-65
2023/09/04 03:46:40;;;;;;;7.30;3.10;;;;;;;14.76;82.06;101886.16;111119;1212;97660;-64
2023/09/04 03:49:05;;;;;;;8.20;3.30;;;;;;;14.73;82.26;101888.27;111076;1209;97660;-66
2023/09/04 03:51:31;;;;;;;8.80;3.50;;;;;;;14.72;82.31;101887.77;111028;1210;98445;-65
2023/09/04 03:54:01;;;;;;;6.40;2.90;;;;;;;14.70;82.43;101895.24;111139;1209;96214;-65
2023/09/04 03:56:27;;;;;;;5.00;3.70;;;;;;;14.70;82.59;101897.02;111066;1209;99958;-65
2023/09/04 03:58:52;;;;;;;7.40;3.60;;;;;;;14.68;82.73;101894.61;111026;1208;97703;-65
2023/09/04 04:01:18;;;;;;;5.80;3.60;;;;;;;14.67;82.81;101900.94;111060;1209;97670;-64
2023/09/04 04:03:43;;;;;;;4.80;3.80;;;;;;;14.67;82.95;101909.75;111027;1212;97693;-65
2023/09/04 04:06:13;;;;;;;6.80;3.50;;;;;;;14.66;82.96;101913.39;111078;1212;97785;-65
2023/09/04 04:08:38;;;;;;;6.70;3.10;;;;;;;14.64;82.99;101915.97;111168;1209;97680;-65
2023/09/04 04:11:04;;;;;;;11.10;3.80;;;;;;;14.64;83.04;101919.75;111008;1209;97677;-65
2023/09/04 04:13:29;;;;;;;7.10;3.30;;;;;;;14.64;83.09;101919.23;111111;1210;97700;-65
2023/09/04 04:15:59;;;;;;;12.50;4.00;;;;;;;14.61;82.99;101922.19;110975;1212;97704;-65
2023/09/04 04:18:26;;;;;;;8.20;3.50;;;;;;;14.59;83.14;101923.73;111204;1209;97581;-65
2023/09/04 04:20:54;;;;;;;8.20;3.60;;;;;;;14.57;83.08;101923.07;111031;1213;97769;-66
2023/09/04 04:23:20;;;;;;;5.70;2.90;;;;;;;14.57;83.25;101924.90;111178;1209;111556;-65
2023/09/04 04:25:48;;;;;;;8.10;3.40;;;;;;;14.56;83.26;101922.06;111132;1209;97681;-65
2023/09/04 04:28:13;;;;;;;10.30;3.70;;;;;;;14.55;83.43;101926.76;111039;1209;97591;-65
2023/09/04 04:30:38;;;;;;;6.30;3.30;;;;;;;14.56;83.46;101933.73;111098;1208;98034;-65
2023/09/04 04:33:04;;;;;;;7.80;3.30;;;;;;;14.57;83.40;101927.39;111004;1212;97611;-65
2023/09/04 04:35:30;;;;;;;10.60;3.90;;;;;;;14.55;83.50;101930.17;111061;1212;97199;-65
2023/09/04 04:37:56;;;;;;;8.80;3.60;;;;;;;14.55;83.70;101930.00;110992;1212;98077;-65
2023/09/04 04:40:23;;;;;;;10.30;3.40;;;;;;;14.55;83.66;101923.52;111027;1209;97671;-65
2023/09/04 04:42:48;;;;;;;8.60;3.60;;;;;;;14.56;83.80;101926.02;110992;1209;97571;-65
2023/09/04 04:45:13;;;;;;;7.00;3.10;;;;;;;14.55;83.89;101924.96;110985;1208;97755;-64
2023/09/04 04:47:39;;;;;;;6.30;3.50;;;;;;;14.54;83.98;101922.66;111047;1210;96460;-64
2023/09/04 04:50:05;;;;;;;6.00;3.20;;;;;;;14.55;84.13;101927.66;111145;1212;97671;-66
2023/09/04 04:52:30;;;;;;;5.60;3.40;;;;;;;14.54;84.33;101929.16;111062;1208;100597;-66
2023/09/04 04:54:56;;;;;;;12.90;4.20;;;;;;;14.54;84.35;101932.19;111040;1209;97680;-64
2023/09/04 04:57:21;;;;;;;7.50;4.00;;;;;;;14.54;84.56;101935.42;111059;1212;97636;-65
2023/09/04 04:59:46;;;;;;;7.20;3.30;;;;;;;14.55;84.55;101938.45;111031;1209;97555;-64
2023/09/04 05:02:13;;;;;;;6.20;3.80;;;;;;;14.56;84.63;101938.42;111011;1212;97713;-64
2023/09/04 05:04:44;;;;;;;6.90;3.70;;;;;;;14.58;84.72;101935.64;111050;1209;97599;-64
2023/09/04 05:07:10;;;;;;;11.40;4.00;;;;;;;14.60;84.96;101939.16;111058;1212;97859;-64
2023/09/04 05:09:35;;;;;;;10.80;3.80;;;;;;;14.62;85.03;101934.41;110974;1209;97645;-64
2023/09/04 05:12:00;;;;;;;6.90;4.00;;;;;;;14.66;85.01;101929.21;111024;1212;97593;-64
2023/09/04 05:14:25;;;;;;;12.80;3.90;;;;;;;14.70;85.00;101930.52;110986;1209;97703;-64
2023/09/04 05:16:50;;;;;;;7.10;3.40;;;;;;;14.73;85.09;101934.33;111034;1209;97602;-64
2023/09/04 05:19:16;;;;;;;9.00;3.80;;;;;;;14.77;85.23;101931.09;110994;1212;97592;-64
2023/09/04 05:21:41;;;;;;;4.30;3.30;;;;;;;14.82;85.26;101929.30;111056;1212;97728;-65
2023/09/04 05:24:06;;;;;;;14.40;4.20;;;;;;;14.81;85.49;101927.72;111107;1210;97581;-65
2023/09/04 05:26:31;;;;;;;12.80;4.10;;;;;;;14.83;85.57;101921.68;111014;1212;97709;-65
2023/09/04 05:28:57;;;;;;;7.00;3.90;;;;;;;14.89;85.65;101922.85;111074;1212;97741;-65
2023/09/04 05:31:22;;;;;;;13.80;3.50;;;;;;;14.96;85.57;101924.94;110979;1209;97578;-64
2023/09/04 05:33:47;;;;;;;12.50;3.90;;;;;;;15.02;85.42;101926.84;111117;1215;97666;-65
2023/09/04 05:36:13;;;;;;;7.40;3.50;;;;;;;15.08;85.47;101930.91;110937;1209;97593;-64
2023/09/04 05:38:38;;;;;;;7.20;3.60;;;;;;;15.14;85.52;101942.54;110991;1209;98354;-65
2023/09/04 05:41:04;;;;;;;11.90;4.70;;;;;;;15.17;85.41;101946.89;111006;1209;97600;-64
2023/09/04 05:43:29;;;;;;;10.70;4.20;;;;;;;15.21;85.44;101946.55;110878;1209;97683;-64
2023/09/04 05:45:54;;;;;;;10.00;2.70;;;;;;;15.27;85.58;101950.12;110995;1209;97716;-64
2023/09/04 05:48:19;;;;;;;6.80;3.90;;;;;;;15.29;85.49;101947.48;110883;1209;96202;-64
2023/09/04 05:50:44;;;;;;;10.60;3.70;;;;;;;15.34;85.38;101945.64;110851;1215;99509;-63
2023/09/04 05:53:10;;;;;;;12.30;3.80;;;;;;;15.41;85.56;101944.63;110960;1209;98355;-64
2023/09/04 05:55:39;;;;;;;6.30;3.10;;;;;;;15.45;85.55;101945.01;110918;1209;98851;-64
2023/09/04 05:58:04;;;;;;;14.70;3.30;;;;;;;15.53;85.49;101947.91;112841;1209;95496;-64
2023/09/04 06:00:30;;;;;;;8.10;3.40;;;;;;;15.60;85.42;101948.15;112904;1209;95868;-62
2023/09/04 06:02:55;;;;;;;11.20;3.30;;;;;;;15.64;85.44;101949.24;112054;1209;97617;-65
2023/09/04 06:05:21;;;;;;;5.00;2.90;;;;;;;15.64;85.27;101950.14;110906;1209;97821;-62
2023/09/04 06:07:46;;;;;;;9.30;3.40;;;;;;;15.62;85.37;101950.05;110972;1212;97662;-63
2023/09/04 06:10:12;;;;;;;11.80;3.10;;;;;;;15.56;85.28;101949.04;110971;1208;112180;-63
2023/09/04 06:12:37;;;;;;;11.30;3.30;;;;;;;15.54;85.25;101954.33;110901;1210;97760;-63
2023/09/04 06:15:02;;;;;;;5.10;3.10;;;;;;;15.50;85.27;101947.83;110836;1220;97658;-63
2023/09/04 06:17:27;;;;;;;7.60;3.80;;;;;;;15.49;85.30;101945.38;110893;1212;97708;-63
2023/09/04 06:19:53;;;;;;;6.40;3.20;;;;;;;15.48;85.32;101941.45;111103;1209;99202;-62
2023/09/04 06:22:18;;;;;;;4.60;3.00;;;;;;;15.50;85.29;101945.31;110957;1212;97717;-64
2023/09/04 06:24:43;;;;;;;10.60;2.90;;;;;;;15.51;85.30;101952.87;111101;1209;97562;-63
2023/09/04 06:27:08;;;;;;;7.60;3.40;;;;;;;15.54;85.19;101957.39;111047;1209;111727;-64
2023/09/04 06:29:34;;;;;;;8.90;3.70;;;;;;;15.57;85.20;101955.11;111051;1212;97695;-64
2023/09/04 06:31:59;;;;;;;9.50;3.40;;;;;;;15.62;85.12;101954.39;111031;1209;97643;-63
2023/09/04 06:34:24;;;;;;;8.00;3.10;;;;;;;15.65;84.98;101952.80;111002;1209;97692;-64
2023/09/04 06:36:49;;;;;;;5.10;3.10;;;;;;;15.67;84.88;101958.48;111111;1212;97594;-64
2023/09/04 06:39:15;;;;;;;11.10;3.50;;;;;;;15.69;85.05;101958.22;110959;1212;97709;-64
2023/09/04 06:41:40;;;;;;;7.50;3.30;;;;;;;15.72;85.02;101958.23;111093;1210;98474;-67
2023/09/04 06:44:06;;;;;;;8.70;3.20;;;;;;;15.74;84.90;101955.98;111041;1212;111287;-64
2023/09/04 06:46:32;;;;;;;11.30;4.30;;;;;;;15.79;85.06;101955.40;111025;1210;97638;-66
2023/09/04 06:48:57;;;;;;;12.90;3.20;;;;;;;15.85;85.06;101956.57;111134;1209;97661;-64
2023/09/04 06:51:22;;;;;;;10.90;3.20;;;;;;;15.93;85.15;101958.38;110941;1212;97639;-63
2023/09/04 06:53:48;;;;;;;7.00;3.30;;;;;;;16.03;85.12;101964.08;110940;1208;97707;-63
2023/09/04 06:56:13;;;;;;;8.30;3.10;;;;;;;16.08;85.19;101956.63;111025;1212;97687;-63
2023/09/04 06:58:39;;;;;;;4.50;3.20;;;;;;;16.14;85.00;101960.70;110989;1210;97565;-64
2023/09/04 07:01:04;;;;;;;12.80;3.40;;;;;;;16.21;85.09;101957.29;111051;1212;98031;-64
2023/09/04 07:03:31;;;;;;;13.70;3.40;;;;;;;16.28;85.13;101962.58;110956;1209;100822;-64
2023/09/04 07:05:57;;;;;;;8.40;2.80;;;;;;;16.34;85.08;101963.89;111125;1212;97728;-63
2023/09/04 07:08:22;;;;;;;13.20;2.70;;;;;;;16.42;85.17;101963.02;111177;1209;97580;-61
2023/09/04 07:10:49;;;;;;;9.30;3.50;;;;;;;16.52;85.43;101961.60;111189;1212;97668;-61
2023/09/04 07:13:15;;;;;;;7.40;2.80;;;;;;;16.62;85.40;101964.40;111082;1212;97652;-61
2023/09/04 07:15:44;;;;;;;9.00;3.00;;;;;;;16.68;85.03;101965.23;111074;1209;97700;-62
2023/09/04 07:18:09;;;;;;;7.20;3.00;;;;;;;16.72;84.95;101963.58;111129;1212;98023;-62
2023/09/04 07:20:35;;;;;;;7.30;2.60;;;;;;;16.78;85.16;101963.28;111137;1209;97533;-62
2023/09/04 07:23:00;;;;;;;8.90;2.80;;;;;;;16.86;85.23;101968.29;111118;1209;97704;-62
2023/09/04 07:25:25;;;;;;;11.30;3.20;;;;;;;16.93;85.14;101969.05;110945;1209;97613;-64
2023/09/04 07:27:50;;;;;;;7.50;3.20;;;;;;;17.02;85.31;101975.09;111128;1209;97656;-62
2023/09/04 07:30:16;;;;;;;10.80;3.00;;;;;;;17.10;85.13;101980.84;111006;1210;97622;-62
2023/09/04 07:32:41;;;;;;;7.30;2.50;;;;;;;17.17;85.04;101985.77;110999;1209;97747;-61
2023/09/04 07:35:08;;;;;;;4.20;3.20;;;;;;;17.23;84.92;101985.66;111103;1212;97686;-62
2023/09/04 07:37:34;;;;;;;5.70;2.80;;;;;;;17.27;85.08;101981.81;111063;1209;97596;-61
2023/09/04 07:39:59;;;;;;;9.00;3.00;;;;;;;17.33;84.91;101981.89;111057;1209;97678;-61
2023/09/04 07:42:27;;;;;;;5.80;2.60;;;;;;;17.39;84.80;101982.85;111108;1209;97673;-60
2023/09/04 07:44:52;;;;;;;9.20;2.70;;;;;;;17.43;84.72;101983.01;111024;1209;99153;-61
2023/09/04 07:47:18;;;;;;;7.90;2.80;;;;;;;17.47;84.72;101976.98;110964;1212;97669;-61
2023/09/04 07:49:43;;;;;;;8.20;2.50;;;;;;;17.56;84.68;101979.45;111091;1212;97600;-61
2023/09/04 07:52:08;;;;;;;5.00;2.00;;;;;;;17.63;84.61;101978.73;111001;1209;97707;-61
2023/09/04 07:54:35;;;;;;;11.60;2.90;;;;;;;17.69;84.55;101974.27;111117;1210;97626;-63
2023/09/04 07:57:02;;;;;;;6.00;3.10;;;;;;;17.76;84.38;101974.80;110907;1209;102745;-62
2023/09/04 07:59:28;;;;;;;5.10;2.10;;;;;;;17.82;84.28;101980.08;110857;1212;97622;-63
2023/09/04 08:01:53;;;;;;;9.20;2.30;;;;;;;17.88;83.91;101983.77;110913;1208;97565;-62
2023/09/04 08:04:19;;;;;;;8.30;2.30;;;;;;;17.92;83.75;101983.79;110956;1212;97837;-63
2023/09/04 08:06:44;;;;;;;6.00;2.30;;;;;;;17.98;83.74;101982.17;110951;1208;98102;-62
2023/09/04 08:09:10;;;;;;;3.90;2.10;;;;;;;18.05;83.68;101980.68;110964;1212;97677;-63
2023/09/04 08:11:36;;;;;;;7.90;2.20;;;;;;;18.11;83.28;101979.30;110991;1212;97763;-60
2023/09/04 08:14:01;;;;;;;4.10;2.70;;;;;;;18.17;83.03;101982.21;110993;1209;97696;-62
2023/09/04 08:16:27;;;;;;;8.00;2.70;;;;;;;18.22;82.65;101986.98;111005;1208;97679;-61
2023/09/04 08:18:53;;;;;;;4.70;2.10;;;;;;;18.27;82.47;101985.27;110869;1212;97687;-61
2023/09/04 08:21:18;;;;;;;8.00;2.10;;;;;;;18.33;82.31;101986.92;111059;1209;97622;-63
2023/09/04 08:23:43;;;;;;;10.20;2.10;;;;;;;18.40;82.23;101989.45;111118;1212;97649;-62
2023/09/04 08:26:12;;;;;;;4.40;2.20;;;;;;;18.48;82.14;101987.89;111003;1208;109433;-62
2023/09/04 08:28:38;;;;;;;4.10;1.50;;;;;;;18.60;82.03;101988.00;111001;1212;99577;-62
2023/09/04 08:31:04;;;;;;;4.70;1.80;;;;;;;18.67;81.65;101988.52;110980;1208;97601;-62
2023/09/04 08:33:30;;;;;;;3.60;1.40;;;;;;;18.68;81.28;101988.10;111025;1209;97685;-62
2023/09/04 08:35:55;;;;;;;3.40;1.50;;;;;;;18.71;80.88;101987.02;110957;1209;97693;-63
2023/09/04 08:38:20;;;;;;;5.80;2.10;;;;;;;18.77;80.74;101985.57;110993;1209;97604;-62
2023/09/04 08:40:46;;;;;;;5.20;1.70;;;;;;;18.83;80.47;101993.21;110978;1208;97604;-62
2023/09/04 08:43:11;;;;;;;3.50;1.60;;;;;;;18.87;80.22;101993.38;111001;1209;97594;-62
2023/09/04 08:45:41;;;;;;;3.60;1.50;;;;;;;18.89;79.95;101992.14;111014;1209;100053;-62
2023/09/04 08:48:08;;;;;;;4.30;2.10;;;;;;;18.94;79.40;101993.17;111146;1212;98032;-62
2023/09/04 08:50:36;;;;;;;3.60;2.00;;;;;;;18.97;79.16;101993.66;111184;1212;97675;-60
2023/09/04 08:53:03;;;;;;;2.60;1.50;;;;;;;19.01;78.83;101992.89;111058;1209;103738;-63
2023/09/04 08:55:29;;;;;;;3.40;1.40;;;;;;;19.03;78.46;101992.98;111024;1209;99254;-63
2023/09/04 08:57:54;;;;;;;2.70;1.50;;;;;;;19.06;78.23;101990.79;110990;1209;98493;-62
2023/09/04 09:00:20;;;;;;;3.90;1.70;;;;;;;19.12;77.83;101990.27;110919;1209;97681;-63
2023/09/04 09:02:45;;;;;;;4.70;1.40;;;;;;;19.18;76.94;101983.05;110930;1209;97574;-61
2023/09/04 09:05:16;;;;;;;6.10;1.70;;;;;;;19.18;76.10;101980.85;111111;1209;97706;-61
2023/09/04 09:07:42;;;;;;;3.60;2.10;;;;;;;19.29;75.72;101979.70;110975;1209;97633;-61
2023/09/04 09:10:11;;;;;;;2.60;1.70;;;;;;;19.42;75.43;101980.73;111273;1209;97741;-61
2023/09/04 09:12:36;;;;;;;6.80;2.20;;;;;;;19.50;75.23;101976.83;111081;1212;97781;-61
2023/09/04 09:15:02;;;;;;;5.50;1.70;;;;;;;19.56;74.99;101979.77;111020;1208;96908;-61
2023/09/04 09:17:27;;;;;;;7.00;1.80;;;;;;;19.57;74.65;101973.54;111084;1212;97652;-61
2023/09/04 09:19:53;;;;;;;4.50;1.40;;;;;;;19.53;74.10;101972.87;111101;1209;97559;-61
2023/09/04 09:22:20;;;;;;;7.30;1.40;;;;;;;19.52;73.99;101970.18;111044;1208;97677;-61
2023/09/04 09:24:59;;;;;;;11.10;1.50;;;;;;;19.56;73.75;101966.66;111046;1212;99117;-61
2023/09/04 09:27:34;;;;;;;7.50;1.80;;;;;;;19.65;73.54;101962.34;110984;1209;97568;-61
2023/09/04 09:30:01;;;;;;;5.70;1.80;;;;;;;19.74;73.16;101965.41;111049;1212;97671;-61
2023/09/04 09:32:31;;;;;;;3.20;1.40;;;;;;;19.85;72.99;101969.09;111023;1212;97576;-61
2023/09/04 09:34:58;;;;;;;3.10;1.30;;;;;;;19.92;72.58;101966.30;111034;1208;97598;-61
2023/09/04 09:37:25;;;;;;;4.80;2.00;;;;;;;19.99;72.80;101966.20;111045;1208;97704;-61
2023/09/04 09:39:51;;;;;;;3.40;1.80;;;;;;;20.09;72.53;101970.85;111126;1209;97600;-61
2023/09/04 09:42:16;;;;;;;6.00;2.20;;;;;;;20.15;72.01;101971.79;111040;1208;97736;-61
2023/09/04 09:44:42;;;;;;;3.50;1.40;;;;;;;20.18;72.05;101973.05;111125;1210;98045;-62
2023/09/04 09:47:10;;;;;;;4.50;2.20;;;;;;;20.18;71.88;101967.43;111069;1209;97688;-61
2023/09/04 09:49:36;;;;;;;10.00;2.10;;;;;;;20.24;71.93;101970.12;111039;1209;97711;-63
2023/09/04 09:52:04;;;;;;;5.50;1.90;;;;;;;20.33;71.20;101971.20;111077;1208;97649;-62
2023/09/04 09:54:35;;;;;;;5.80;1.60;;;;;;;20.35;70.73;101968.13;110985;1209;97662;-61
2023/09/04 09:57:01;;;;;;;3.30;1.30;;;;;;;20.36;70.71;101971.16;111259;1208;96144;-61
2023/09/04 09:59:30;;;;;;;8.20;2.00;;;;;;;20.37;70.69;101972.04;111041;1212;97735;-61
2023/09/04 10:01:56;;;;;;;13.00;2.10;;;;;;;20.39;70.60;101974.04;111177;1208;97548;-61
2023/09/04 10:04:24;;;;;;;3.50;1.70;;;;;;;20.44;69.72;101972.73;111054;1212;97728;-61
2023/09/04 10:06:52;;;;;;;2.80;1.60;;;;;;;20.45;69.66;101974.28;111034;1208;96641;-62
2023/09/04 10:09:23;;;;;;;3.00;1.50;;;;;;;20.44;69.16;101972.71;111026;1212;97681;-62
2023/09/04 10:11:57;;;;;;;4.70;1.60;;;;;;;20.42;69.12;101974.79;111083;1208;99264;-62
2023/09/04 10:14:31;;;;;;;2.60;1.50;;;;;;;20.48;69.32;101969.88;111046;1208;97674;-62
2023/09/04 10:17:01;;;;;;;3.60;1.90;;;;;;;20.54;69.15;101964.09;111074;1212;97696;-61
2023/09/04 10:19:33;;;;;;;6.20;2.00;;;;;;;20.59;69.08;101967.94;111098;1212;103932;-61
2023/09/04 10:22:09;;;;;;;4.40;2.10;;;;;;;20.66;68.43;101963.09;111081;1212;97696;-61
2023/09/04 10:24:57;;;;;;;7.40;1.70;;;;;;;20.76;68.38;101961.14;111003;1212;99174;-61
2023/09/04 10:27:27;;;;;;;8.90;1.90;;;;;;;20.89;68.31;101963.39;110968;1214;97546;-61
2023/09/04 10:30:01;;;;;;;6.70;1.60;;;;;;;20.94;67.83;101963.98;111082;1209;95032;-61
2023/09/04 10:32:28;;;;;;;3.50;2.10;;;;;;;20.89;67.53;101963.92;111014;1211;103280;-62
2023/09/04 10:34:56;;;;;;;6.70;2.30;;;;;;;20.83;67.41;101962.34;111086;1208;97591;-62
2023/09/04 10:37:26;;;;;;;4.70;2.10;;;;;;;20.81;67.33;101961.23;111014;1209;99813;-62
2023/09/04 10:39:53;;;;;;;4.70;1.70;;;;;;;20.88;67.46;101957.11;110985;1212;98365;-62
2023/09/04 10:42:19;;;;;;;4.70;1.70;;;;;;;21.04;67.64;101959.14;111140;1208;97578;-62
2023/09/04 10:44:51;;;;;;;3.50;1.80;;;;;;;21.16;66.96;101955.39;111074;1208;97665;-62
2023/09/04 10:47:18;;;;;;;5.00;1.60;;;;;;;21.20;66.75;101956.45;111108;1208;95144;-62
2023/09/04 10:49:44;;;;;;;5.30;1.90;;;;;;;21.29;66.74;101950.90;111035;1208;97639;-62
2023/09/04 10:52:11;;;;;;;4.10;1.60;;;;;;;21.36;66.38;101948.64;111131;1208;96167;-63
2023/09/04 10:54:36;;;;;;;7.90;2.10;;;;;;;21.41;66.34;101945.55;111030;1208;97719;-62
2023/09/04 10:57:05;;;;;;;17.70;3.80;;;;;;;21.43;66.38;101948.48;111098;1208;97604;-61
2023/09/04 10:59:54;;;;;;;9.10;2.30;;;;;;;21.49;66.24;101949.00;110978;1208;99354;-62
2023/09/04 11:02:33;;;;;;;6.30;2.10;;;;;;;21.49;65.88;101944.66;111020;1209;98463;-62
2023/09/04 11:05:00;;;;;;;3.00;1.60;;;;;;;21.56;66.01;101942.72;111091;1209;98020;-62
2023/09/04 11:07:28;;;;;;;4.50;1.50;;;;;;;21.67;65.65;101941.71;110977;1209;98132;-62
2023/09/04 11:10:01;;;;;;;5.10;2.10;;;;;;;21.70;64.85;101934.08;111092;1208;99079;-62
2023/09/04 11:12:27;;;;;;;3.90;1.80;;;;;;;21.68;64.88;101938.73;111031;1208;99436;-62